Time;durP1;ratioP1;P1;durP2;ratioP2;P2;SDS_P1;SDS_P2;PMS_P1;PMS_P2;Temp;Humidity;BMP_temperature;BMP_pressure;BME280_temperature;BME280_humidity;BME280_pressure;Samples;Min_cycle;Max_cycle;Signal;HPM_P1;HPM_P2
2022/04/14 00:00:35;;;;;;;4.43;2.13;;;;;;;7.30;100.00;93092.84;2098222;28;20028;-81
2022/04/14 00:01:36;;;;;;;6.68;2.50;;;;;;;7.35;100.00;93086.34;2098677;28;20024;-80
2022/04/14 00:02:37;;;;;;;11.20;2.30;;;;;;;7.31;100.00;93087.13;2098486;28;20025;-80
2022/04/14 00:03:40;;;;;;;4.15;2.30;;;;;;;7.40;100.00;93089.31;2094619;28;20072;-80
2022/04/14 00:04:41;;;;;;;7.22;2.30;;;;;;;7.38;100.00;93086.31;2111465;27;20047;-81
2022/04/14 00:05:42;;;;;;;7.40;2.20;;;;;;;7.36;100.00;93083.28;2106861;28;20027;-81
2022/04/14 00:06:43;;;;;;;7.88;2.90;;;;;;;7.43;100.00;93083.22;2110689;27;20047;-81
2022/04/14 00:07:44;;;;;;;4.43;2.28;;;;;;;7.41;100.00;93087.41;2106790;28;20020;-81
2022/04/14 00:08:45;;;;;;;7.35;2.75;;;;;;;7.44;100.00;93087.38;2106889;28;20048;-80
2022/04/14 00:09:46;;;;;;;10.27;2.35;;;;;;;7.36;100.00;93091.25;2106758;27;20027;-79
2022/04/14 00:10:47;;;;;;;7.53;2.40;;;;;;;7.42;100.00;93087.03;2115156;28;20026;-81
2022/04/14 00:11:48;;;;;;;4.93;2.60;;;;;;;7.37;100.00;93082.13;2106563;28;20059;-81
2022/04/14 00:12:49;;;;;;;9.50;3.25;;;;;;;7.33;100.00;93086.72;2106295;28;20447;-81
2022/04/14 00:13:50;;;;;;;9.90;2.40;;;;;;;7.37;100.00;93082.13;2106776;28;20405;-81
2022/04/14 00:14:51;;;;;;;5.45;2.50;;;;;;;7.22;100.00;93088.75;2098518;28;20380;-81
2022/04/14 00:15:52;;;;;;;8.20;2.25;;;;;;;7.34;100.00;93087.50;2098536;28;20024;-81
2022/04/14 00:16:53;;;;;;;5.55;2.20;;;;;;;7.27;100.00;93094.38;2097801;28;20024;-80
2022/04/14 00:17:55;;;;;;;6.82;2.83;;;;;;;7.31;100.00;93095.09;2098505;28;20107;-82
2022/04/14 00:18:56;;;;;;;5.80;2.53;;;;;;;7.18;100.00;93096.75;2098890;28;20021;-81
2022/04/14 00:19:57;;;;;;;6.88;2.50;;;;;;;7.25;100.00;93087.97;2107095;28;20103;-80
2022/04/14 00:20:58;;;;;;;5.53;2.63;;;;;;;7.24;100.00;93086.44;2106778;28;20504;-81
2022/04/14 00:21:59;;;;;;;6.63;2.70;;;;;;;7.28;100.00;93095.88;2106746;28;20110;-80
2022/04/14 00:22:59;;;;;;;6.93;2.58;;;;;;;7.31;100.00;93089.78;2106584;28;20034;-81
2022/04/14 00:24:00;;;;;;;7.68;2.67;;;;;;;7.22;100.00;93092.16;2105925;28;20472;-81
2022/04/14 00:25:03;;;;;;;9.07;2.58;;;;;;;7.20;100.00;93086.50;2114069;28;20102;-81
2022/04/14 00:26:04;;;;;;;5.60;2.35;;;;;;;7.19;100.00;93092.94;2106342;28;20037;-82
2022/04/14 00:27:05;;;;;;;5.05;2.50;;;;;;;7.19;100.00;93094.84;2106703;28;20027;-83
2022/04/14 00:28:06;;;;;;;7.95;2.60;;;;;;;7.26;100.00;93092.13;2106617;28;20106;-79
2022/04/14 00:29:07;;;;;;;6.25;2.78;;;;;;;7.23;100.00;93087.59;2098354;28;20024;-81
2022/04/14 00:30:10;;;;;;;3.95;2.38;;;;;;;7.35;100.00;93087.09;2098237;28;20028;-81
2022/04/14 00:31:11;;;;;;;4.50;2.22;;;;;;;7.30;100.00;93090.94;2107193;27;20031;-82
2022/04/14 00:32:12;;;;;;;5.47;2.38;;;;;;;7.16;100.00;93098.31;2106756;28;20405;-83
2022/04/14 00:33:13;;;;;;;6.45;2.70;;;;;;;7.13;100.00;93088.44;2106549;28;20085;-80
2022/04/14 00:34:14;;;;;;;6.63;2.35;;;;;;;7.19;100.00;93090.28;2107033;28;20043;-80
2022/04/14 00:35:15;;;;;;;6.90;2.50;;;;;;;7.03;100.00;93084.75;2106586;28;20103;-80
2022/04/14 00:36:16;;;;;;;8.43;2.30;;;;;;;7.09;100.00;93083.16;2106116;28;20035;-81
2022/04/14 00:37:17;;;;;;;9.93;2.55;;;;;;;7.03;100.00;93085.50;2106757;28;20019;-81
2022/04/14 00:38:18;;;;;;;4.45;2.30;;;;;;;7.03;100.00;93085.50;2106788;28;20480;-80
2022/04/14 00:39:19;;;;;;;8.15;2.58;;;;;;;7.09;100.00;93090.38;2098422;28;20111;-82
2022/04/14 00:40:20;;;;;;;6.35;2.53;;;;;;;7.14;100.00;93081.97;2098234;28;20029;-79
2022/04/14 00:41:21;;;;;;;5.72;2.35;;;;;;;7.10;100.00;93083.91;2106574;28;20086;-80
2022/04/14 00:42:22;;;;;;;8.38;2.80;;;;;;;7.20;100.00;93086.50;2098276;28;20480;-80
2022/04/14 00:43:34;;;;;;;4.35;2.53;;;;;;;7.08;100.00;93086.97;2098111;28;20025;-81
2022/04/14 00:44:35;;;;;;;6.65;2.33;;;;;;;6.97;100.00;93081.75;2116587;27;20018;-81
2022/04/14 00:45:36;;;;;;;8.13;2.80;;;;;;;6.94;100.00;93082.53;2106423;28;20423;-81
2022/04/14 00:46:37;;;;;;;4.72;2.63;;;;;;;6.97;100.00;93079.09;2105902;28;20027;-81
2022/04/14 00:47:38;;;;;;;7.20;2.80;;;;;;;6.93;100.00;93082.91;2106321;28;20020;-81
2022/04/14 00:48:39;;;;;;;4.32;2.63;;;;;;;7.00;100.00;93078.31;2106240;28;20557;-82
2022/04/14 00:49:41;;;;;;;9.07;2.85;;;;;;;7.07;100.00;93086.22;2102410;28;20065;-81
2022/04/14 00:50:42;;;;;;;11.40;3.00;;;;;;;6.94;100.00;93081.78;2106752;27;20026;-81
2022/04/14 00:51:43;;;;;;;5.65;2.38;;;;;;;6.97;100.00;93089.72;2110578;28;20462;-80
2022/04/14 00:52:47;;;;;;;9.38;2.95;;;;;;;6.86;100.00;93086.41;2114847;28;20114;-82
2022/04/14 00:53:48;;;;;;;7.43;2.30;;;;;;;6.93;100.00;93083.66;2114978;28;20019;-81
2022/04/14 00:54:49;;;;;;;10.73;2.60;;;;;;;6.89;100.00;93092.81;2106312;28;20400;-81
2022/04/14 00:55:51;;;;;;;7.80;2.40;;;;;;;6.93;100.00;93086.31;2098355;28;20107;-80
2022/04/14 00:56:52;;;;;;;10.95;2.72;;;;;;;6.96;100.00;93080.22;2106716;28;20048;-81
2022/04/14 00:57:53;;;;;;;6.25;3.42;;;;;;;6.93;100.00;93088.22;2106424;28;20027;-82
2022/04/14 00:58:54;;;;;;;8.25;3.38;;;;;;;7.15;100.00;93084.22;2106581;28;20522;-82
2022/04/14 00:59:55;;;;;;;5.63;2.60;;;;;;;6.92;100.00;93086.72;2106043;28;20024;-82
2022/04/14 01:00:56;;;;;;;7.68;2.33;;;;;;;6.95;100.00;93084.03;2106279;28;20024;-81
2022/04/14 01:01:58;;;;;;;6.47;2.28;;;;;;;6.88;100.00;93086.00;2097888;28;20024;-81
2022/04/14 01:03:00;;;;;;;7.70;2.88;;;;;;;6.95;100.00;93096.59;2106081;28;20050;-83
2022/04/14 01:04:02;;;;;;;7.57;3.38;;;;;;;6.85;100.00;93089.44;2106088;28;20109;-81
2022/04/14 01:05:06;;;;;;;6.68;2.67;;;;;;;6.90;100.00;93091.69;2096588;28;20039;-82
2022/04/14 01:06:09;;;;;;;10.52;2.78;;;;;;;6.82;100.00;93093.66;2097535;28;21863;-82
2022/04/14 01:07:10;;;;;;;10.30;2.60;;;;;;;6.74;100.00;93092.19;2098475;28;20073;-82
2022/04/14 01:08:16;;;;;;;5.13;2.42;;;;;;;6.74;100.00;93087.63;2106441;28;20024;-81
2022/04/14 01:09:20;;;;;;;8.30;2.88;;;;;;;6.75;100.00;93097.09;2115432;27;20024;-80
2022/04/14 01:10:22;;;;;;;9.27;3.13;;;;;;;6.78;100.00;93090.25;2106752;28;20449;-81
2022/04/14 01:11:23;;;;;;;7.18;2.50;;;;;;;6.87;100.00;93090.56;2098009;28;20030;-84
2022/04/14 01:12:24;;;;;;;10.43;2.97;;;;;;;6.67;100.00;93084.25;2097664;28;20027;-80
2022/04/14 01:13:25;;;;;;;6.93;2.92;;;;;;;6.69;100.00;93090.69;2098063;28;20079;-80
2022/04/14 01:14:31;;;;;;;5.65;2.20;;;;;;;6.79;100.00;93086.44;2097833;28;20031;-82
2022/04/14 01:15:32;;;;;;;5.15;2.33;;;;;;;6.76;100.00;93095.97;2098606;28;20024;-82
2022/04/14 01:16:33;;;;;;;7.13;2.58;;;;;;;6.84;100.00;93098.56;2097730;28;20552;-81
2022/04/14 01:17:34;;;;;;;9.95;2.92;;;;;;;6.87;100.00;93098.53;2097413;28;20017;-82
2022/04/14 01:18:35;;;;;;;6.60;3.10;;;;;;;6.73;100.00;93098.66;2098025;28;20028;-81
2022/04/14 01:19:37;;;;;;;4.45;2.35;;;;;;;6.84;100.00;93096.66;2097955;28;20062;-83
2022/04/14 01:20:42;;;;;;;5.57;2.78;;;;;;;6.75;100.00;93091.03;2082015;28;20029;-81
2022/04/14 01:21:55;;;;;;;5.10;2.70;;;;;;;6.73;100.00;93096.75;2090198;28;20383;-82
2022/04/14 01:22:59;;;;;;;6.30;2.97;;;;;;;6.86;100.00;93097.03;2099715;28;20103;-82
2022/04/14 01:24:02;;;;;;;7.90;3.17;;;;;;;6.82;100.00;93093.66;2105736;28;20433;-81
2022/04/14 01:25:03;;;;;;;6.65;2.72;;;;;;;6.71;100.00;93098.28;2097877;28;20020;-80
2022/04/14 01:26:04;;;;;;;6.95;2.78;;;;;;;6.76;100.00;93098.63;2089574;28;20029;-82
2022/04/14 01:27:05;;;;;;;7.32;3.08;;;;;;;6.73;100.00;93094.09;2097968;28;20354;-82
2022/04/14 01:28:07;;;;;;;4.43;2.20;;;;;;;6.73;100.00;93103.97;2114044;28;20027;-79
2022/04/14 01:29:22;;;;;;;6.50;2.47;;;;;;;6.72;100.00;93102.47;2106209;28;20077;-80
2022/04/14 01:30:23;;;;;;;9.23;2.83;;;;;;;6.62;100.00;93097.97;2093302;28;20056;-82
2022/04/14 01:31:24;;;;;;;6.07;2.58;;;;;;;6.60;100.00;93108.22;2089464;28;20028;-81
2022/04/14 01:32:25;;;;;;;7.07;2.92;;;;;;;6.62;100.00;93106.69;2106166;28;20508;-81
2022/04/14 01:33:26;;;;;;;5.70;2.55;;;;;;;6.55;100.00;93102.19;2097754;28;20123;-80
2022/04/14 01:34:29;;;;;;;6.25;3.63;;;;;;;6.63;100.00;93099.47;2106243;28;20043;-80
2022/04/14 01:35:31;;;;;;;4.30;2.40;;;;;;;6.64;100.00;93101.00;2097919;28;20028;-81
2022/04/14 01:36:39;;;;;;;3.83;2.28;;;;;;;6.68;100.00;93101.72;2100798;28;20087;-82
2022/04/14 01:37:40;;;;;;;7.35;3.00;;;;;;;6.72;100.00;93099.81;2090460;28;20059;-82
2022/04/14 01:38:41;;;;;;;7.35;2.80;;;;;;;6.71;100.00;93104.34;2089069;28;20111;-82
2022/04/14 01:39:43;;;;;;;4.78;2.45;;;;;;;6.62;100.00;93106.69;2089573;28;20021;-81
2022/04/14 01:40:44;;;;;;;8.63;2.72;;;;;;;6.65;100.00;93102.50;2081274;28;20115;-83
2022/04/14 01:41:45;;;;;;;4.38;2.22;;;;;;;6.61;100.00;93107.09;2081110;28;20509;-84
2022/04/14 01:42:46;;;;;;;5.60;2.72;;;;;;;6.57;100.00;93101.78;2089457;28;20084;-81
2022/04/14 01:43:46;;;;;;;7.50;2.63;;;;;;;6.63;100.00;93110.88;2089489;28;20017;-84
2022/04/14 01:44:48;;;;;;;6.95;2.65;;;;;;;6.57;100.00;93102.53;2089696;28;20021;-83
2022/04/14 01:45:51;;;;;;;6.28;2.67;;;;;;;6.54;100.00;93113.19;2089608;28;20024;-80
2022/04/14 01:46:52;;;;;;;8.27;3.08;;;;;;;6.52;100.00;93116.25;2091885;28;20093;-82
2022/04/14 01:47:52;;;;;;;5.57;2.40;;;;;;;6.52;100.00;93115.47;2114005;28;20462;-81
2022/04/14 01:48:54;;;;;;;7.22;3.35;;;;;;;6.45;100.00;93105.69;2105973;28;20032;-81
2022/04/14 01:49:55;;;;;;;7.20;2.60;;;;;;;6.47;100.00;93114.00;2097775;28;20044;-80
2022/04/14 01:50:56;;;;;;;3.88;2.53;;;;;;;6.53;100.00;93120.41;2097480;28;20032;-83
2022/04/14 01:51:57;;;;;;;8.93;2.92;;;;;;;6.65;100.00;93118.44;2097612;28;20036;-81
2022/04/14 01:52:58;;;;;;;7.97;2.85;;;;;;;6.63;100.00;93118.06;2104374;28;20504;-82
2022/04/14 01:53:59;;;;;;;6.55;2.65;;;;;;;6.53;100.00;93117.75;2106138;28;20028;-82
2022/04/14 01:55:00;;;;;;;4.20;2.50;;;;;;;6.55;100.00;93120.78;2105918;28;20047;-81
2022/04/14 01:56:01;;;;;;;5.00;2.40;;;;;;;6.59;100.00;93130.63;2105462;28;20039;-81
2022/04/14 01:57:04;;;;;;;6.75;2.80;;;;;;;6.53;100.00;93122.28;2105914;28;20089;-81
2022/04/14 01:58:05;;;;;;;7.15;2.90;;;;;;;6.54;100.00;93124.59;2098012;28;20055;-80
2022/04/14 01:59:06;;;;;;;8.43;3.25;;;;;;;6.42;100.00;93126.94;2102283;28;20024;-80
2022/04/14 02:00:09;;;;;;;9.10;3.03;;;;;;;6.37;100.00;93120.13;2088956;28;20036;-81
2022/04/14 02:01:10;;;;;;;6.93;3.00;;;;;;;6.39;100.00;93120.50;2093950;28;20071;-82
2022/04/14 02:02:11;;;;;;;5.90;3.00;;;;;;;6.38;100.00;93123.53;2105930;28;20028;-82
2022/04/14 02:03:12;;;;;;;8.18;2.55;;;;;;;6.37;100.00;93124.69;2097590;28;20361;-82
2022/04/14 02:04:13;;;;;;;7.07;2.42;;;;;;;6.33;100.00;93122.06;2097756;28;20031;-80
2022/04/14 02:05:14;;;;;;;4.13;2.47;;;;;;;6.34;100.00;93130.78;2097570;28;20111;-82
2022/04/14 02:06:15;;;;;;;6.15;2.70;;;;;;;6.29;100.00;93123.97;2097842;28;20026;-81
2022/04/14 02:07:17;;;;;;;7.28;2.88;;;;;;;6.31;100.00;93124.31;2098333;28;20028;-81
2022/04/14 02:08:18;;;;;;;11.75;2.90;;;;;;;6.36;100.00;93123.16;2105051;28;20027;-81
2022/04/14 02:09:19;;;;;;;11.90;3.60;;;;;;;6.24;100.00;93127.03;2097338;28;20402;-81
2022/04/14 02:10:20;;;;;;;3.60;2.40;;;;;;;6.28;100.00;93123.22;2099064;28;20025;-80
2022/04/14 02:11:21;;;;;;;7.10;3.17;;;;;;;6.20;100.00;93121.75;2105635;28;20063;-82
2022/04/14 02:12:22;;;;;;;7.20;2.72;;;;;;;6.17;100.00;93124.41;2088709;28;20025;-84
2022/04/14 02:13:23;;;;;;;10.10;3.35;;;;;;;6.21;100.00;93125.16;2097541;28;20024;-80
2022/04/14 02:14:24;;;;;;;6.88;2.75;;;;;;;6.26;100.00;93119.44;2097614;28;20071;-80
2022/04/14 02:15:25;;;;;;;5.80;3.03;;;;;;;6.28;100.00;93117.16;2089428;28;20044;-80
2022/04/14 02:16:26;;;;;;;5.22;2.80;;;;;;;6.36;100.00;93125.81;2097497;28;20086;-80
2022/04/14 02:17:27;;;;;;;6.68;2.50;;;;;;;6.24;100.00;93124.38;2104557;28;20173;-81
2022/04/14 02:18:28;;;;;;;7.53;3.13;;;;;;;6.29;100.00;93121.31;2106021;28;20481;-81
2022/04/14 02:19:29;;;;;;;5.32;2.58;;;;;;;6.27;100.00;93118.28;2105934;28;20020;-82
2022/04/14 02:20:30;;;;;;;9.10;2.80;;;;;;;6.26;100.00;93124.72;2105860;28;20119;-80
2022/04/14 02:21:31;;;;;;;7.85;3.22;;;;;;;6.16;100.00;93126.31;2097655;28;20047;-81
2022/04/14 02:22:41;;;;;;;6.35;2.65;;;;;;;6.22;100.00;93121.34;2097595;28;20024;-81
2022/04/14 02:23:42;;;;;;;8.02;2.80;;;;;;;6.21;100.00;93128.56;2104671;28;20023;-81
2022/04/14 02:24:43;;;;;;;5.22;2.60;;;;;;;6.18;100.00;93125.91;2113812;28;20126;-82
2022/04/14 02:25:46;;;;;;;6.65;2.70;;;;;;;6.08;100.00;93129.38;2106104;28;20024;-80
2022/04/14 02:26:47;;;;;;;6.13;2.85;;;;;;;6.17;100.00;93124.41;2105613;28;20519;-80
2022/04/14 02:27:48;;;;;;;3.08;2.35;;;;;;;6.14;100.00;93130.47;2105601;28;20060;-79
2022/04/14 02:28:49;;;;;;;6.07;2.78;;;;;;;6.08;100.00;93137.34;2105754;28;20019;-80
2022/04/14 02:29:50;;;;;;;6.20;2.83;;;;;;;6.05;100.00;93136.97;2105704;28;20016;-81
2022/04/14 02:30:51;;;;;;;5.95;3.25;;;;;;;6.07;100.00;93130.53;2097472;28;20028;-80
2022/04/14 02:31:55;;;;;;;6.18;2.90;;;;;;;6.08;100.00;93132.03;2114177;28;20499;-81
2022/04/14 02:32:56;;;;;;;5.53;2.85;;;;;;;6.07;100.00;93133.19;2114180;28;20028;-81
2022/04/14 02:33:57;;;;;;;8.98;3.15;;;;;;;6.05;100.00;93136.97;2097426;28;20074;-81
2022/04/14 02:34:58;;;;;;;6.50;2.97;;;;;;;5.92;100.00;93132.47;2097506;28;20032;-83
2022/04/14 02:35:59;;;;;;;5.57;2.47;;;;;;;5.95;100.00;93129.06;2105317;28;20042;-82
2022/04/14 02:37:00;;;;;;;7.43;2.58;;;;;;;5.98;100.00;93137.00;2105547;28;20081;-82
2022/04/14 02:38:01;;;;;;;7.93;2.65;;;;;;;5.97;100.00;93130.19;2109905;28;20020;-81
2022/04/14 02:39:02;;;;;;;9.90;3.10;;;;;;;6.04;100.00;93134.69;2105746;28;20079;-80
2022/04/14 02:40:04;;;;;;;4.90;2.50;;;;;;;6.03;100.00;93138.50;2097693;28;20028;-80
2022/04/14 02:41:05;;;;;;;8.38;2.65;;;;;;;6.05;100.00;93131.66;2105732;28;20024;-82
2022/04/14 02:42:06;;;;;;;6.47;2.55;;;;;;;5.98;100.00;93139.66;2097051;28;20078;-81
2022/04/14 02:43:07;;;;;;;6.18;2.70;;;;;;;6.12;100.00;93138.09;2105166;28;20043;-79
2022/04/14 02:44:08;;;;;;;5.85;2.75;;;;;;;6.01;100.00;93140.75;2105624;28;20024;-81
2022/04/14 02:45:09;;;;;;;4.40;2.83;;;;;;;6.03;100.00;93138.50;2097435;28;20040;-80
2022/04/14 02:46:10;;;;;;;6.40;2.50;;;;;;;5.96;100.00;93141.16;2101263;28;20190;-80
2022/04/14 02:47:11;;;;;;;4.97;2.80;;;;;;;5.92;100.00;93135.13;2113225;28;20024;-82
2022/04/14 02:48:12;;;;;;;8.43;3.10;;;;;;;6.03;100.00;93131.28;2112926;28;20023;-81
2022/04/14 02:49:13;;;;;;;4.95;2.80;;;;;;;6.11;100.00;93139.97;2113474;28;20042;-82
2022/04/14 02:50:15;;;;;;;3.90;2.40;;;;;;;6.04;100.00;93140.75;2097016;28;20035;-82
2022/04/14 02:51:16;;;;;;;4.95;2.55;;;;;;;5.91;100.00;93139.66;2097334;28;20032;-80
2022/04/14 02:52:17;;;;;;;10.20;2.70;;;;;;;5.84;100.00;93134.38;2104660;28;20134;-81
2022/04/14 02:53:18;;;;;;;6.25;2.65;;;;;;;5.93;100.00;93134.75;2101436;28;20028;-80
2022/04/14 02:54:19;;;;;;;6.22;2.83;;;;;;;5.89;100.00;93135.88;2114076;28;20511;-81
2022/04/14 02:55:20;;;;;;;10.20;2.60;;;;;;;5.99;100.00;93135.84;2094711;28;20504;-82
2022/04/14 02:56:21;;;;;;;4.30;2.60;;;;;;;5.87;100.00;93132.84;2098864;28;20048;-83
2022/04/14 02:57:22;;;;;;;6.03;2.85;;;;;;;5.89;100.00;93138.53;2097160;28;20032;-82
2022/04/14 02:58:24;;;;;;;3.80;2.80;;;;;;;5.92;100.00;93135.88;2089163;28;20029;-83
2022/04/14 02:59:25;;;;;;;7.95;2.85;;;;;;;5.93;100.00;93137.41;2097781;28;20024;-81
2022/04/14 03:00:26;;;;;;;4.63;2.80;;;;;;;5.95;100.00;93135.13;2096807;28;20032;-82
2022/04/14 03:01:27;;;;;;;9.93;2.95;;;;;;;5.90;100.00;93140.78;2088996;28;20025;-82
2022/04/14 03:02:28;;;;;;;5.53;2.70;;;;;;;6.00;100.00;93139.25;2095732;28;20020;-80
2022/04/14 03:03:29;;;;;;;4.97;2.55;;;;;;;5.99;100.00;93141.16;2097301;28;20025;-81
2022/04/14 03:04:30;;;;;;;5.85;2.78;;;;;;;6.07;100.00;93143.78;2097157;28;20119;-80
2022/04/14 03:05:31;;;;;;;5.75;2.40;;;;;;;5.90;100.00;93140.78;2103978;28;20048;-80
2022/04/14 03:06:32;;;;;;;9.13;2.92;;;;;;;5.82;100.00;93148.00;2112013;28;20060;-81
2022/04/14 03:07:33;;;;;;;6.95;2.78;;;;;;;5.82;100.00;93145.34;2102218;28;20032;-82
2022/04/14 03:08:36;;;;;;;7.38;3.15;;;;;;;5.84;100.00;93142.34;2105059;28;20563;-83
2022/04/14 03:09:36;;;;;;;3.88;2.40;;;;;;;5.89;100.00;93138.53;2097400;28;20489;-81
2022/04/14 03:10:37;;;;;;;7.55;2.90;;;;;;;5.88;100.00;93132.44;2115273;28;20027;-82
2022/04/14 03:11:38;;;;;;;6.93;2.67;;;;;;;5.95;100.00;93139.66;2115159;28;20016;-81
2022/04/14 03:12:41;;;;;;;4.70;2.40;;;;;;;5.95;100.00;93137.00;2097355;28;20062;-81
2022/04/14 03:13:42;;;;;;;7.05;2.78;;;;;;;5.97;100.00;93138.16;2092153;28;20036;-82
2022/04/14 03:14:43;;;;;;;5.82;2.90;;;;;;;5.92;100.00;93138.53;2097887;28;20013;-84
2022/04/14 03:15:48;;;;;;;5.82;2.67;;;;;;;5.96;100.00;93139.28;2098188;28;20027;-82
2022/04/14 03:16:49;;;;;;;6.00;2.67;;;;;;;5.99;100.00;93143.06;2098762;28;20031;-82
2022/04/14 03:17:50;;;;;;;5.70;3.00;;;;;;;5.95;100.00;93140.41;2098336;28;20032;-82
2022/04/14 03:18:51;;;;;;;8.50;2.90;;;;;;;5.77;100.00;93134.41;2098429;28;20023;-80
2022/04/14 03:19:52;;;;;;;6.38;2.97;;;;;;;5.85;100.00;93132.47;2107047;28;20027;-82
2022/04/14 03:20:53;;;;;;;8.50;3.60;;;;;;;5.79;100.00;93142.72;2106664;28;20024;-81
2022/04/14 03:21:54;;;;;;;4.30;3.15;;;;;;;5.89;100.00;93133.22;2090258;28;20016;-81
2022/04/14 03:22:55;;;;;;;6.93;3.17;;;;;;;5.92;100.00;93133.22;2098362;28;20027;-81
2022/04/14 03:23:56;;;;;;;10.95;4.25;;;;;;;6.06;100.00;93132.44;2105747;28;20445;-80
2022/04/14 03:24:57;;;;;;;5.85;3.00;;;;;;;6.00;100.00;93128.66;2097263;28;20024;-80
2022/04/14 03:25:58;;;;;;;9.25;3.42;;;;;;;6.04;100.00;93135.44;2106886;28;20024;-83
2022/04/14 03:26:59;;;;;;;8.88;3.47;;;;;;;5.98;100.00;93126.41;2114932;28;20038;-80
2022/04/14 03:28:00;;;;;;;7.30;3.30;;;;;;;5.96;100.00;93136.63;2106207;28;20828;-81
2022/04/14 03:29:02;;;;;;;12.85;3.47;;;;;;;6.02;100.00;93135.09;2106345;28;20051;-81
2022/04/14 03:30:05;;;;;;;9.63;3.20;;;;;;;6.00;100.00;93133.97;2098440;28;20497;-82
2022/04/14 03:31:06;;;;;;;8.70;3.47;;;;;;;6.00;100.00;93136.59;2090464;28;20931;-82
2022/04/14 03:32:07;;;;;;;6.85;3.55;;;;;;;5.97;100.00;93132.84;2096982;28;20035;-81
2022/04/14 03:33:08;;;;;;;7.13;3.00;;;;;;;5.94;100.00;93138.16;2106515;28;20024;-81
2022/04/14 03:34:09;;;;;;;7.82;2.88;;;;;;;5.77;100.00;93140.47;2101117;28;20358;-80
2022/04/14 03:35:11;;;;;;;5.03;2.80;;;;;;;5.80;100.00;93138.94;2099617;28;20023;-80
2022/04/14 03:36:12;;;;;;;14.23;3.60;;;;;;;5.89;100.00;93133.22;2106284;28;20060;-83
2022/04/14 03:37:13;;;;;;;5.03;2.38;;;;;;;6.03;100.00;93127.88;2098096;28;20024;-83
2022/04/14 03:38:14;;;;;;;5.78;2.72;;;;;;;6.00;100.00;93140.00;2098366;28;20017;-80
2022/04/14 03:39:16;;;;;;;10.20;4.35;;;;;;;5.94;100.00;93132.84;2098377;28;20036;-82
2022/04/14 03:40:16;;;;;;;6.32;3.20;;;;;;;5.96;100.00;93136.63;2104706;28;20099;-81
2022/04/14 03:41:17;;;;;;;13.00;3.67;;;;;;;5.94;100.00;93132.84;2112626;28;20023;-81
2022/04/14 03:42:18;;;;;;;5.50;3.10;;;;;;;5.97;100.00;93140.03;2106684;28;20024;-82
2022/04/14 03:43:20;;;;;;;11.43;4.18;;;;;;;5.98;100.00;93126.41;2098233;28;20021;-81
2022/04/14 03:44:21;;;;;;;7.80;3.47;;;;;;;6.02;100.00;93132.44;2106621;28;20078;-81
2022/04/14 03:45:21;;;;;;;11.93;3.92;;;;;;;6.23;100.00;93133.47;2098509;28;20028;-79
2022/04/14 03:46:23;;;;;;;11.05;4.13;;;;;;;6.49;100.00;93132.19;2101781;28;20020;-81
2022/04/14 03:47:25;;;;;;;10.52;4.07;;;;;;;6.51;100.00;93132.56;2097813;28;20119;-80
2022/04/14 03:48:26;;;;;;;10.57;4.00;;;;;;;6.63;100.00;93131.34;2092059;28;20059;-81
2022/04/14 03:49:27;;;;;;;11.05;4.60;;;;;;;7.20;100.00;93126.34;2098224;28;20489;-81
2022/04/14 03:50:28;;;;;;;15.10;4.28;;;;;;;7.14;100.00;93130.56;2106603;28;20012;-84
2022/04/14 03:51:29;;;;;;;10.90;4.30;;;;;;;7.21;100.00;93132.44;2106781;28;20020;-82
2022/04/14 03:52:30;;;;;;;9.13;4.10;;;;;;;7.29;100.00;93126.66;2098171;28;20028;-81
2022/04/14 03:53:31;;;;;;;8.98;3.90;;;;;;;7.30;100.00;93130.06;2098172;28;20020;-81
2022/04/14 03:54:32;;;;;;;8.88;3.65;;;;;;;7.48;100.00;93137.88;2098126;28;20025;-82
2022/04/14 03:55:33;;;;;;;7.05;3.67;;;;;;;7.68;100.00;93135.38;2098321;28;20401;-82
2022/04/14 03:56:34;;;;;;;6.70;3.90;;;;;;;7.60;100.00;93139.28;2106558;28;20468;-81
2022/04/14 03:57:35;;;;;;;6.75;3.60;;;;;;;7.64;100.00;93134.66;2106344;28;20031;-82
2022/04/14 03:58:36;;;;;;;6.97;3.72;;;;;;;7.56;100.00;93139.31;2098527;28;20032;-82
2022/04/14 03:59:37;;;;;;;15.98;4.15;;;;;;;7.63;100.00;93138.47;2098029;28;20389;-83
2022/04/14 04:00:38;;;;;;;8.43;4.18;;;;;;;7.43;100.00;93128.41;2105926;28;20046;-80
2022/04/14 04:01:40;;;;;;;8.85;3.75;;;;;;;7.60;100.00;93133.97;2091542;28;20025;-81
2022/04/14 04:02:40;;;;;;;8.52;3.92;;;;;;;7.88;100.00;93136.31;2101953;28;20024;-80
2022/04/14 04:03:41;;;;;;;10.98;4.03;;;;;;;7.90;100.00;93134.03;2098405;28;20028;-82
2022/04/14 04:04:42;;;;;;;10.05;3.85;;;;;;;7.79;100.00;93128.06;2098691;28;20025;-81
2022/04/14 04:05:43;;;;;;;10.45;4.03;;;;;;;7.83;100.00;93128.78;2089881;28;20501;-81
2022/04/14 04:06:45;;;;;;;11.00;4.57;;;;;;;7.80;100.00;93143.59;2098477;28;20028;-81
2022/04/14 04:07:46;;;;;;;7.57;3.67;;;;;;;7.93;100.00;93133.22;2098462;28;20165;-80
2022/04/14 04:08:47;;;;;;;6.65;4.05;;;;;;;8.10;100.00;93122.75;2098546;28;20024;-81
2022/04/14 04:09:48;;;;;;;8.95;4.07;;;;;;;8.10;100.00;93136.81;2098454;28;20024;-81
2022/04/14 04:10:49;;;;;;;8.30;3.70;;;;;;;8.02;100.00;93130.06;2098475;28;20032;-81
2022/04/14 04:11:50;;;;;;;9.63;3.80;;;;;;;7.85;100.00;93136.34;2098065;28;20032;-81
2022/04/14 04:12:51;;;;;;;6.13;3.50;;;;;;;7.76;100.00;93140.22;2097882;28;20045;-81
2022/04/14 04:13:52;;;;;;;7.10;3.72;;;;;;;7.77;100.00;93135.66;2098405;28;20020;-80
2022/04/14 04:14:53;;;;;;;10.15;3.75;;;;;;;7.74;100.00;93133.81;2098488;28;20021;-82
2022/04/14 04:15:53;;;;;;;9.57;3.63;;;;;;;7.70;100.00;93138.41;2106807;28;20043;-82
2022/04/14 04:17:02;;;;;;;8.70;3.50;;;;;;;7.61;100.00;93140.78;2100945;28;20043;-82
2022/04/14 04:18:05;;;;;;;8.07;3.85;;;;;;;7.72;100.00;93141.41;2106693;28;20028;-82
2022/04/14 04:19:06;;;;;;;9.30;3.47;;;;;;;7.71;100.00;93138.00;2098479;28;20078;-80
2022/04/14 04:20:07;;;;;;;10.07;3.85;;;;;;;7.75;100.00;93138.72;2106581;28;20475;-82
2022/04/14 04:21:08;;;;;;;11.48;3.70;;;;;;;7.67;100.00;93145.28;2098487;28;20549;-82
2022/04/14 04:22:10;;;;;;;9.77;4.20;;;;;;;7.62;100.00;93140.38;2090191;28;20059;-80
2022/04/14 04:23:11;;;;;;;10.05;4.05;;;;;;;7.56;100.00;93137.41;2106603;28;20024;-82
2022/04/14 04:24:12;;;;;;;10.82;3.63;;;;;;;7.65;100.00;93139.59;2097776;28;20497;-80
2022/04/14 04:25:13;;;;;;;9.20;4.20;;;;;;;7.58;100.00;93140.41;2098166;28;20620;-80
2022/04/14 04:26:14;;;;;;;9.32;3.67;;;;;;;7.69;100.00;93150.22;2089921;28;20029;-81
2022/04/14 04:27:17;;;;;;;7.40;3.30;;;;;;;7.62;100.00;93145.72;2091493;28;20025;-81
2022/04/14 04:28:20;;;;;;;12.32;3.60;;;;;;;7.58;100.00;93148.41;2099111;28;20477;-81
2022/04/14 04:29:21;;;;;;;9.32;3.75;;;;;;;7.54;100.00;93149.59;2106913;28;20027;-80
2022/04/14 04:30:22;;;;;;;7.40;2.97;;;;;;;7.51;100.00;93145.81;2106663;28;20027;-82
2022/04/14 04:31:23;;;;;;;8.40;3.40;;;;;;;7.43;100.00;93152.34;2106470;28;20024;-84
2022/04/14 04:32:24;;;;;;;9.82;3.20;;;;;;;7.38;100.00;93144.81;2106584;28;20096;-81
2022/04/14 04:33:25;;;;;;;8.27;3.30;;;;;;;7.36;100.00;93162.28;2106333;28;20089;-81
2022/04/14 04:34:26;;;;;;;6.45;3.15;;;;;;;7.32;100.00;93159.66;2098250;28;20044;-82
2022/04/14 04:35:27;;;;;;;9.85;3.50;;;;;;;7.22;100.00;93150.63;2098313;28;20123;-81
2022/04/14 04:36:28;;;;;;;6.75;3.67;;;;;;;7.23;100.00;93164.69;2106182;28;20020;-82
2022/04/14 04:37:30;;;;;;;10.20;3.60;;;;;;;7.15;100.00;93161.31;2106350;28;20031;-82
2022/04/14 04:38:30;;;;;;;7.07;3.83;;;;;;;7.12;100.00;93169.34;2098368;28;20028;-81
2022/04/14 04:39:32;;;;;;;7.28;3.38;;;;;;;7.15;100.00;93169.28;2090108;28;20056;-80
2022/04/14 04:40:33;;;;;;;8.63;3.47;;;;;;;7.12;100.00;93172.00;2105891;28;20020;-82
2022/04/14 04:41:34;;;;;;;6.82;3.13;;;;;;;7.09;100.00;93168.22;2106658;28;20027;-81
2022/04/14 04:42:35;;;;;;;6.30;3.50;;;;;;;7.00;100.00;93165.25;2106700;28;20111;-82
2022/04/14 04:43:36;;;;;;;7.18;3.60;;;;;;;6.99;100.00;93166.41;2106043;28;20381;-82
2022/04/14 04:44:38;;;;;;;11.10;3.55;;;;;;;6.90;100.00;93161.53;2098148;28;20473;-81
2022/04/14 04:45:40;;;;;;;6.07;4.13;;;;;;;6.84;100.00;93171.03;2094402;28;20103;-83
2022/04/14 04:46:40;;;;;;;12.88;4.75;;;;;;;6.78;100.00;93164.63;2098610;28;20130;-81
2022/04/14 04:47:41;;;;;;;9.30;3.78;;;;;;;6.71;100.00;93168.09;2094262;28;20016;-83
2022/04/14 04:48:42;;;;;;;8.68;4.32;;;;;;;6.75;100.00;93168.81;2100310;28;20039;-82